createdAt,value
2018-05-26T00:02:08.274Z,99.90
2018-05-26T00:04:38.642Z,99.90
2018-05-26T00:07:08.958Z,99.90
2018-05-26T00:09:45.547Z,99.90
2018-05-26T00:12:16.612Z,99.90
2018-05-26T00:14:47.748Z,99.90
2018-05-26T00:17:18.887Z,99.90
2018-05-26T00:19:49.246Z,99.90
2018-05-26T00:22:19.610Z,99.90
2018-05-26T00:25:10.399Z,99.90
2018-05-26T00:27:40.774Z,99.90
2018-05-26T00:30:11.811Z,99.90
2018-05-26T00:32:42.201Z,99.90
2018-05-26T00:35:32.970Z,99.90
2018-05-26T00:38:04.120Z,99.90
2018-05-26T00:40:35.229Z,99.90
2018-05-26T00:43:05.592Z,99.90
2018-05-26T00:45:35.930Z,99.90
2018-05-26T00:48:06.308Z,99.90
2018-05-26T00:50:36.681Z,99.90
2018-05-26T00:53:07.074Z,99.90
2018-05-26T00:55:38.211Z,99.90
2018-05-26T00:58:08.575Z,99.90
2018-05-26T01:00:39.188Z,99.90
2018-05-26T01:03:10.318Z,99.90
2018-05-26T01:05:41.677Z,99.90
2018-05-26T01:08:12.064Z,99.90
2018-05-26T01:10:42.424Z,99.90
2018-05-26T01:13:13.557Z,99.90
2018-05-26T01:15:43.945Z,99.90
2018-05-26T01:18:33.688Z,99.90
2018-05-26T01:21:04.075Z,99.90
2018-05-26T01:23:34.391Z,99.90
2018-05-26T01:26:04.764Z,99.90
2018-05-26T01:28:35.881Z,99.90
2018-05-26T01:31:06.251Z,99.90
2018-05-26T01:33:36.616Z,99.90
2018-05-26T01:36:07.003Z,99.90
2018-05-26T01:38:37.379Z,99.90
2018-05-26T01:41:07.742Z,99.90
2018-05-26T01:43:38.317Z,99.90
2018-05-26T01:48:51.946Z,99.90
2018-05-26T01:51:22.317Z,99.90
2018-05-26T01:53:52.686Z,99.90
2018-05-26T01:56:23.077Z,99.90
2018-05-26T01:58:53.447Z,99.90
2018-05-26T02:01:23.759Z,99.90
2018-05-26T02:03:54.103Z,99.90
2018-05-26T02:06:25.498Z,99.90
2018-05-26T02:08:55.866Z,99.90
2018-05-26T02:11:26.477Z,99.90
2018-05-26T02:13:58.318Z,99.90
2018-05-26T02:16:29.362Z,99.90
2018-05-26T02:18:59.762Z,99.90
2018-05-26T02:21:52.313Z,99.90
2018-05-26T02:24:22.713Z,99.90
2018-05-26T02:26:53.078Z,99.90
2018-05-26T02:29:23.441Z,99.90
2018-05-26T02:31:53.835Z,99.90
2018-05-26T02:34:24.197Z,99.90
2018-05-26T02:36:54.562Z,99.90
2018-05-26T02:39:24.954Z,99.90
2018-05-26T02:41:55.321Z,99.90
2018-05-26T02:44:25.698Z,99.90
2018-05-26T02:46:56.839Z,99.90
2018-05-26T02:49:28.674Z,99.90
2018-05-26T02:51:59.039Z,99.90
2018-05-26T02:54:29.372Z,99.90
2018-05-26T02:56:59.731Z,99.90
2018-05-26T02:59:30.096Z,99.90
2018-05-26T03:02:01.202Z,99.90
2018-05-26T03:04:49.193Z,99.90
2018-05-26T03:07:37.859Z,99.90
2018-05-26T03:10:26.019Z,99.90
2018-05-26T03:13:22.722Z,99.90
2018-05-26T03:16:00.295Z,99.90
2018-05-26T03:18:30.693Z,99.90
2018-05-26T03:21:22.475Z,99.90
2018-05-26T03:23:52.865Z,99.90
2018-05-26T03:26:23.244Z,99.90
2018-05-26T03:28:53.595Z,99.90
2018-05-26T03:31:31.141Z,99.90
2018-05-26T03:34:02.219Z,99.90
2018-05-26T03:36:33.613Z,99.90
2018-05-26T03:39:04.009Z,99.90
2018-05-26T03:41:36.365Z,99.90
2018-05-26T03:44:06.739Z,99.90
2018-05-26T03:46:37.118Z,99.90
2018-05-26T03:49:07.485Z,99.90
2018-05-26T03:51:38.871Z,99.90
2018-05-26T03:54:10.031Z,99.90
2018-05-26T03:57:34.744Z,99.90
2018-05-26T04:00:10.643Z,99.90
2018-05-26T04:02:41.007Z,99.90
2018-05-26T04:05:11.386Z,99.90
2018-05-26T04:07:42.053Z,99.90
2018-05-26T04:10:13.180Z,99.90
2018-05-26T04:12:44.314Z,99.90
2018-05-26T04:15:14.699Z,99.90
2018-05-26T04:17:45.061Z,99.90
2018-05-26T04:20:15.427Z,99.90
2018-05-26T04:22:45.769Z,99.90
2018-05-26T04:25:16.137Z,99.90
2018-05-26T04:27:46.498Z,99.90
2018-05-26T04:30:17.641Z,99.90
2018-05-26T04:32:48.771Z,99.90
2018-05-26T04:35:19.949Z,99.90
2018-05-26T04:37:50.301Z,99.90
2018-05-26T04:40:40.035Z,99.90
2018-05-26T04:43:11.191Z,99.90
2018-05-26T04:45:41.544Z,99.90
2018-05-26T04:48:19.241Z,99.90
2018-05-26T04:50:51.649Z,99.90
2018-05-26T04:53:22.010Z,99.90
2018-05-26T04:55:52.731Z,99.90
2018-05-26T04:58:23.862Z,99.90
2018-05-26T05:00:55.251Z,99.90
2018-05-26T05:03:25.633Z,99.90
2018-05-26T05:05:56.004Z,99.90
2018-05-26T05:08:26.313Z,99.90
2018-05-26T05:10:56.705Z,99.90
2018-05-26T05:13:27.066Z,99.90
2018-05-26T05:15:57.433Z,99.90
2018-05-26T05:18:49.228Z,99.90
2018-05-26T05:21:19.587Z,99.90
2018-05-26T05:23:57.085Z,99.90
2018-05-26T05:26:27.445Z,99.90
2018-05-26T05:28:58.568Z,99.90
2018-05-26T05:31:28.896Z,99.90
2018-05-26T05:33:59.459Z,99.90
2018-05-26T05:36:29.768Z,99.90
2018-05-26T05:39:00.411Z,99.90
2018-05-26T05:41:31.540Z,99.90
2018-05-26T05:44:02.193Z,99.90
2018-05-26T05:46:33.360Z,99.90
2018-05-26T05:49:03.717Z,99.90
2018-05-26T05:51:34.074Z,99.90
2018-05-26T05:54:05.228Z,99.90
2018-05-26T05:56:36.464Z,99.90
2018-05-26T05:59:07.492Z,99.90
2018-05-26T06:04:21.104Z,99.90
2018-05-26T06:06:51.492Z,99.90
2018-05-26T06:09:22.631Z,99.90
2018-05-26T06:11:52.986Z,99.90
2018-05-26T06:14:23.364Z,99.90
2018-05-26T06:16:53.715Z,99.90
2018-05-26T06:19:24.849Z,99.90
2018-05-26T06:21:55.990Z,99.90
2018-05-26T06:24:26.648Z,99.90
2018-05-26T06:26:57.782Z,99.90
2018-05-26T06:29:28.872Z,99.90
2018-05-26T06:32:06.545Z,99.90
2018-05-26T06:34:37.963Z,99.90
2018-05-26T06:37:08.267Z,99.90
2018-05-26T06:39:38.638Z,99.90
2018-05-26T06:42:09.028Z,99.90
2018-05-26T06:44:39.401Z,99.90
2018-05-26T06:47:09.761Z,99.90
2018-05-26T06:50:01.557Z,99.90
2018-05-26T06:52:31.865Z,99.90
2018-05-26T06:55:02.237Z,99.90
2018-05-26T06:57:53.005Z,99.90
2018-05-26T07:00:24.180Z,99.90
2018-05-26T07:02:54.481Z,99.90
2018-05-26T07:05:24.860Z,99.90
2018-05-26T07:07:55.227Z,99.90
2018-05-26T07:10:25.584Z,99.90
2018-05-26T07:13:16.381Z,99.90
2018-05-26T07:15:46.724Z,99.90
2018-05-26T07:18:17.080Z,99.90
2018-05-26T07:20:47.728Z,99.90
2018-05-26T07:23:18.862Z,99.90
2018-05-26T07:25:49.999Z,99.90
2018-05-26T07:28:20.450Z,99.90
2018-05-26T07:30:52.797Z,99.90
2018-05-26T07:33:23.152Z,99.90
2018-05-26T07:35:53.542Z,99.90
2018-05-26T07:38:23.899Z,99.90
2018-05-26T07:40:54.260Z,99.90
2018-05-26T07:43:24.649Z,99.90
2018-05-26T07:45:55.796Z,99.90
2018-05-26T07:48:26.104Z,99.90
2018-05-26T07:50:56.491Z,99.90
2018-05-26T07:53:26.857Z,99.90
2018-05-26T07:55:57.227Z,99.90
2018-05-26T07:58:31.722Z,99.90
2018-05-26T08:01:02.039Z,99.90
2018-05-26T08:03:33.177Z,99.90
2018-05-26T08:06:04.333Z,99.90
2018-05-26T08:08:34.697Z,99.90
2018-05-26T08:11:05.257Z,99.90
2018-05-26T08:13:35.648Z,99.90
2018-05-26T08:16:08.066Z,99.90
2018-05-26T08:18:38.427Z,99.90
2018-05-26T08:21:08.810Z,99.90
2018-05-26T08:23:39.196Z,99.90
2018-05-26T08:26:09.552Z,99.90
2018-05-26T08:28:39.936Z,99.90
2018-05-26T08:31:10.303Z,99.90
2018-05-26T08:33:40.675Z,99.90
2018-05-26T08:36:12.008Z,99.90
2018-05-26T08:38:43.856Z,99.90
2018-05-26T08:41:14.224Z,99.90
2018-05-26T08:43:44.615Z,99.90
2018-05-26T08:46:14.980Z,99.90
2018-05-26T08:48:45.353Z,99.90
2018-05-26T08:51:15.740Z,99.90
2018-05-26T08:53:46.047Z,99.90
2018-05-26T08:56:16.407Z,99.90
2018-05-26T08:58:46.806Z,99.90
2018-05-26T09:01:17.202Z,99.90
2018-05-26T09:03:47.604Z,99.90
2018-05-26T09:06:18.032Z,99.90
2018-05-26T09:08:48.352Z,99.90
2018-05-26T09:11:18.810Z,99.90
2018-05-26T09:13:49.841Z,99.90
2018-05-26T09:16:20.220Z,99.90
2018-05-26T09:18:50.533Z,99.90
2018-05-26T09:21:20.932Z,99.90
2018-05-26T09:23:52.069Z,99.90
2018-05-26T09:26:22.429Z,99.90
2018-05-26T09:28:52.827Z,99.90
2018-05-26T09:31:23.229Z,99.90
2018-05-26T09:33:54.280Z,99.90
2018-05-26T09:36:24.667Z,99.90
2018-05-26T09:38:55.026Z,99.90
2018-05-26T09:41:25.403Z,99.90
2018-05-26T09:43:55.789Z,99.90
2018-05-26T09:46:26.163Z,99.90
2018-05-26T09:48:56.465Z,99.90
2018-05-26T09:51:27.629Z,99.90
2018-05-26T09:53:58.001Z,99.90
2018-05-26T09:56:28.383Z,99.90
2018-05-26T09:58:58.753Z,99.90
2018-05-26T10:01:29.120Z,99.70
2018-05-26T10:03:59.491Z,99.30
2018-05-26T10:06:29.887Z,98.90
2018-05-26T10:09:00.246Z,98.60
2018-05-26T10:11:31.645Z,99.40
2018-05-26T10:16:47.132Z,99.90
2018-05-26T10:19:19.393Z,99.40
2018-05-26T10:21:49.748Z,99.30
2018-05-26T10:24:20.367Z,98.80
2018-05-26T10:26:51.525Z,99.60
2018-05-26T10:29:21.898Z,99.50
2018-05-26T10:32:13.691Z,99.20
2018-05-26T10:34:44.298Z,98.10
2018-05-26T10:37:15.428Z,98.90
2018-05-26T10:39:45.806Z,98.90
2018-05-26T10:42:18.219Z,98.30
2018-05-26T10:44:48.576Z,97.90
2018-05-26T10:47:18.966Z,99.70
2018-05-26T10:49:49.332Z,99.10
2018-05-26T10:52:19.699Z,99.00
2018-05-26T10:54:50.077Z,97.70
2018-05-26T10:57:20.436Z,98.90
2018-05-26T10:59:58.176Z,99.40
2018-05-26T11:02:28.548Z,98.30
2018-05-26T11:04:58.905Z,98.20
2018-05-26T11:07:29.305Z,97.50
2018-05-26T11:09:59.908Z,96.30
2018-05-26T11:12:31.739Z,95.20
2018-05-26T11:15:02.125Z,95.10
2018-05-26T11:17:32.480Z,95.10
2018-05-26T11:20:02.848Z,95.50
2018-05-26T11:22:33.244Z,94.70
2018-05-26T11:25:04.628Z,95.30
2018-05-26T11:27:34.996Z,92.90
2018-05-26T11:30:05.385Z,92.40
2018-05-26T11:32:36.006Z,92.40
2018-05-26T11:35:06.389Z,92.50
2018-05-26T11:37:36.722Z,93.50
2018-05-26T11:40:07.079Z,94.30
2018-05-26T11:42:38.210Z,93.50
2018-05-26T11:45:09.344Z,93.40
2018-05-26T11:47:39.702Z,93.50
2018-05-26T11:50:10.061Z,93.40
2018-05-26T11:52:46.584Z,93.90
2018-05-26T11:55:18.999Z,94.50
2018-05-26T11:57:49.365Z,94.00
2018-05-26T12:00:20.782Z,94.60
2018-05-26T12:02:52.155Z,94.90
2018-05-26T12:05:22.536Z,95.30
2018-05-26T12:07:54.828Z,95.90
2018-05-26T12:10:30.303Z,95.30
2018-05-26T12:13:00.878Z,96.20
2018-05-26T12:15:31.501Z,95.90
2018-05-26T12:18:02.851Z,94.30
2018-05-26T12:20:33.955Z,94.90
2018-05-26T12:23:04.265Z,94.80
2018-05-26T12:25:34.632Z,94.70
2018-05-26T12:28:05.018Z,94.20
2018-05-26T12:30:36.432Z,93.20
2018-05-26T12:33:06.788Z,93.70
2018-05-26T12:35:37.181Z,92.40
2018-05-26T12:38:07.548Z,92.00
2018-05-26T12:40:37.926Z,90.40
2018-05-26T12:43:09.090Z,86.60
2018-05-26T12:45:39.453Z,86.50
2018-05-26T12:48:09.808Z,84.60
2018-05-26T12:50:40.958Z,88.30
2018-05-26T12:53:12.088Z,88.30
2018-05-26T12:55:42.395Z,88.50
2018-05-26T12:58:12.790Z,90.20
2018-05-26T13:00:43.096Z,86.60
2018-05-26T13:03:13.405Z,84.00
2018-05-26T13:05:43.785Z,85.20
2018-05-26T13:08:14.368Z,84.80
2018-05-26T13:10:45.491Z,86.20
2018-05-26T13:13:15.884Z,86.20
2018-05-26T13:16:10.397Z,85.60
2018-05-26T13:18:40.792Z,87.10
2018-05-26T13:21:11.152Z,86.80
2018-05-26T13:23:41.525Z,86.90
2018-05-26T13:26:12.137Z,88.10
2018-05-26T13:28:43.271Z,88.10
2018-05-26T13:31:13.642Z,88.00
2018-05-26T13:33:44.028Z,88.10
2018-05-26T13:36:14.385Z,88.80
2018-05-26T13:38:44.768Z,90.00
2018-05-26T13:41:15.187Z,89.60
2018-05-26T13:43:45.513Z,87.40
2018-05-26T13:46:15.891Z,90.00
2018-05-26T13:48:46.311Z,90.00
2018-05-26T13:51:16.822Z,89.80
2018-05-26T13:53:52.798Z,90.00
2018-05-26T13:56:23.256Z,89.20
2018-05-26T13:58:53.588Z,90.80
2018-05-26T14:01:23.988Z,91.50
2018-05-26T14:03:54.378Z,91.80
2018-05-26T14:06:25.522Z,92.80
2018-05-26T14:08:55.921Z,92.80
2018-05-26T14:11:26.315Z,93.40
2018-05-26T14:13:56.729Z,93.80
2018-05-26T14:16:27.142Z,93.60
2018-05-26T14:18:58.288Z,94.20
2018-05-26T14:21:28.667Z,94.10
2018-05-26T14:23:59.117Z,93.40
2018-05-26T14:26:29.504Z,93.70
2018-05-26T14:29:05.033Z,91.80
2018-05-26T14:31:35.414Z,90.90
2018-05-26T14:36:53.441Z,90.30
2018-05-26T14:39:23.831Z,90.60
2018-05-26T14:41:54.202Z,88.50
2018-05-26T14:44:24.617Z,88.20
2018-05-26T14:46:59.105Z,88.40
2018-05-26T14:49:30.214Z,89.90
2018-05-26T14:52:00.599Z,88.50
2018-05-26T14:54:30.981Z,89.70
2018-05-26T14:57:01.386Z,89.10
2018-05-26T14:59:31.779Z,88.50
2018-05-26T15:02:02.162Z,88.00
2018-05-26T15:04:32.576Z,88.80
2018-05-26T15:07:02.970Z,88.20
2018-05-26T15:09:40.732Z,87.20
2018-05-26T15:12:11.110Z,87.20
2018-05-26T15:14:41.490Z,89.00
2018-05-26T15:17:11.894Z,89.50
2018-05-26T15:19:42.283Z,90.30
2018-05-26T15:22:16.776Z,88.70
2018-05-26T15:24:47.155Z,88.90
2018-05-26T15:27:17.538Z,89.00
2018-05-26T15:29:48.259Z,88.90
2018-05-26T15:32:18.660Z,88.60
2018-05-26T15:34:48.987Z,88.40
2018-05-26T15:37:20.166Z,87.80
2018-05-26T15:39:50.741Z,87.80
2018-05-26T15:42:21.173Z,88.70
2018-05-26T15:44:51.543Z,88.50
2018-05-26T15:47:21.855Z,89.40
2018-05-26T15:49:52.238Z,90.20
2018-05-26T15:52:28.569Z,90.30
2018-05-26T15:54:58.958Z,90.30
2018-05-26T15:57:30.108Z,90.50
2018-05-26T16:00:00.532Z,90.30
2018-05-26T16:02:30.881Z,90.70
2018-05-26T16:05:01.250Z,89.70
2018-05-26T16:07:31.594Z,89.40
2018-05-26T16:10:01.978Z,87.50
2018-05-26T16:12:32.373Z,88.30
2018-05-26T16:15:03.010Z,86.60
2018-05-26T16:17:33.383Z,86.00
2018-05-26T16:20:03.759Z,87.90
2018-05-26T16:22:34.366Z,87.40
2018-05-26T16:25:06.810Z,88.60
2018-05-26T16:27:43.293Z,88.80
2018-05-26T16:30:13.694Z,87.30
2018-05-26T16:32:49.230Z,88.10
2018-05-26T16:35:19.608Z,87.10
2018-05-26T16:37:49.993Z,89.50
2018-05-26T16:40:20.410Z,89.30
2018-05-26T16:42:50.974Z,88.00
2018-05-26T16:45:21.383Z,88.10
2018-05-26T16:47:51.762Z,89.30
2018-05-26T16:50:22.147Z,88.90
2018-05-26T16:52:53.541Z,90.20
2018-05-26T16:55:24.691Z,89.50
2018-05-26T16:57:55.068Z,89.40
2018-05-26T17:00:25.391Z,89.80
2018-05-26T17:02:55.769Z,90.50
2018-05-26T17:05:26.890Z,90.80
2018-05-26T17:07:57.251Z,90.80
2018-05-26T17:10:27.636Z,91.00
2018-05-26T17:12:58.755Z,91.30
2018-05-26T17:15:48.510Z,91.80
2018-05-26T17:18:18.812Z,92.30
2018-05-26T17:20:49.936Z,93.10
2018-05-26T17:23:20.297Z,93.10
2018-05-26T17:25:50.658Z,93.20
2018-05-26T17:28:22.182Z,93.70
2018-05-26T17:30:52.606Z,94.20
2018-05-26T17:33:22.962Z,93.90
2018-05-26T17:35:53.352Z,94.10
2018-05-26T17:38:23.743Z,94.20
2018-05-26T17:40:54.300Z,93.70
2018-05-26T17:43:25.546Z,93.70
2018-05-26T17:45:56.596Z,93.80
2018-05-26T17:48:26.963Z,93.70
2018-05-26T17:50:57.336Z,94.20
2018-05-26T17:53:28.490Z,94.00
2018-05-26T17:55:59.064Z,93.90
2018-05-26T17:58:29.427Z,94.10
2018-05-26T18:00:59.823Z,94.40
2018-05-26T18:03:30.193Z,94.90
2018-05-26T18:06:01.321Z,95.20
2018-05-26T18:08:32.585Z,95.40
2018-05-26T18:11:02.846Z,95.40
2018-05-26T18:13:39.365Z,95.70
2018-05-26T18:16:10.487Z,96.80
2018-05-26T18:18:40.861Z,96.50
2018-05-26T18:21:11.257Z,96.80
2018-05-26T18:23:42.289Z,96.90
2018-05-26T18:26:12.659Z,97.30
2018-05-26T18:28:42.987Z,97.30
2018-05-26T18:31:13.342Z,97.50
2018-05-26T18:33:44.748Z,97.90
2018-05-26T18:36:16.026Z,98.40
2018-05-26T18:38:49.450Z,98.30
2018-05-26T18:44:08.059Z,98.60
2018-05-26T18:46:38.431Z,98.80
2018-05-26T18:49:14.944Z,98.80
2018-05-26T18:51:46.016Z,99.10
2018-05-26T18:54:16.457Z,98.80
2018-05-26T18:56:48.909Z,99.10
2018-05-26T18:59:21.311Z,98.90
2018-05-26T19:01:51.672Z,98.90
2018-05-26T19:04:22.996Z,99.10
2018-05-26T19:07:00.670Z,99.20
2018-05-26T19:09:31.382Z,99.40
2018-05-26T19:12:01.757Z,99.30
2018-05-26T19:14:39.312Z,99.00
2018-05-26T19:17:09.670Z,98.50
2018-05-26T19:19:45.181Z,98.40
2018-05-26T19:22:15.548Z,98.20
2018-05-26T19:24:47.969Z,98.10
2018-05-26T19:27:19.125Z,97.90
2018-05-26T19:29:49.493Z,97.90
2018-05-26T19:32:21.892Z,97.60
2018-05-26T19:34:52.283Z,97.50
2018-05-26T19:37:22.651Z,97.40
2018-05-26T19:39:52.957Z,97.50
2018-05-26T19:42:23.633Z,97.40
2018-05-26T19:44:54.765Z,97.40
2018-05-26T19:47:25.891Z,97.60
2018-05-26T19:49:56.334Z,97.60
2018-05-26T19:52:26.645Z,97.60
2018-05-26T19:54:57.007Z,98.50
2018-05-26T19:57:27.396Z,98.20
2018-05-26T19:59:58.693Z,98.50
2018-05-26T20:02:29.066Z,98.90
2018-05-26T20:04:59.453Z,99.20
2018-05-26T20:07:30.843Z,99.90
2018-05-26T20:10:01.200Z,99.90
2018-05-26T20:12:32.550Z,99.90
2018-05-26T20:15:03.684Z,99.90
2018-05-26T20:17:34.816Z,99.90
2018-05-26T20:20:05.205Z,99.90
2018-05-26T20:22:37.625Z,99.90
2018-05-26T20:25:07.991Z,99.90
2018-05-26T20:27:38.379Z,99.90
2018-05-26T20:30:09.503Z,99.90
2018-05-26T20:32:39.864Z,99.90
2018-05-26T20:35:10.268Z,99.90
2018-05-26T20:37:40.696Z,99.90
2018-05-26T20:40:11.031Z,99.90
2018-05-26T20:42:42.840Z,99.90
2018-05-26T20:45:16.272Z,99.90
2018-05-26T20:47:46.638Z,99.90
2018-05-26T20:50:17.024Z,99.90
2018-05-26T20:52:47.386Z,99.90
2018-05-26T20:55:17.744Z,99.90
2018-05-26T20:58:07.497Z,99.90
2018-05-26T21:00:37.871Z,99.90
2018-05-26T21:03:08.232Z,99.90
2018-05-26T21:05:39.391Z,99.90
2018-05-26T21:08:09.753Z,99.90
2018-05-26T21:10:40.118Z,99.90
2018-05-26T21:13:11.214Z,99.90
2018-05-26T21:15:59.911Z,99.90
2018-05-26T21:18:30.292Z,99.90
2018-05-26T21:21:08.023Z,99.90
2018-05-26T21:23:39.385Z,99.90
2018-05-26T21:26:10.530Z,99.90
2018-05-26T21:28:41.663Z,99.90
2018-05-26T21:31:12.048Z,99.90
2018-05-26T21:33:44.455Z,99.90
2018-05-26T21:36:14.808Z,99.90
2018-05-26T21:38:45.958Z,99.90
2018-05-26T21:41:17.085Z,99.90
2018-05-26T21:43:47.445Z,99.90
2018-05-26T21:46:17.832Z,99.90
2018-05-26T21:48:49.179Z,99.90
2018-05-26T21:51:19.544Z,99.90
2018-05-26T21:53:49.935Z,99.90
2018-05-26T21:56:20.295Z,99.90
2018-05-26T21:58:50.664Z,99.90
2018-05-26T22:01:21.056Z,99.90
2018-05-26T22:03:51.413Z,99.90
2018-05-26T22:06:21.772Z,99.90
2018-05-26T22:08:52.917Z,99.90
2018-05-26T22:11:25.061Z,99.90
2018-05-26T22:13:55.368Z,99.90
2018-05-26T22:16:27.806Z,99.90
2018-05-26T22:18:58.177Z,99.90
2018-05-26T22:21:28.539Z,99.90
2018-05-26T22:23:59.687Z,99.90
2018-05-26T22:26:30.056Z,99.90
2018-05-26T22:29:19.815Z,99.90
2018-05-26T22:31:50.173Z,99.90
2018-05-26T22:34:39.928Z,99.90
2018-05-26T22:37:10.288Z,99.90
2018-05-26T22:39:40.646Z,99.90
2018-05-26T22:42:11.791Z,99.90
2018-05-26T22:44:42.921Z,99.90
2018-05-26T22:47:13.283Z,99.90
2018-05-26T22:49:43.672Z,99.90
2018-05-26T22:52:14.046Z,99.90
2018-05-26T22:54:44.407Z,99.90
2018-05-26T22:57:14.782Z,99.90
2018-05-26T23:02:32.359Z,99.90
2018-05-26T23:05:06.814Z,99.90
2018-05-26T23:07:37.200Z,99.90
2018-05-26T23:10:07.568Z,99.90
2018-05-26T23:12:37.929Z,99.90
2018-05-26T23:15:09.073Z,99.90
2018-05-26T23:17:41.421Z,99.90
2018-05-26T23:20:11.786Z,99.90
2018-05-26T23:22:42.161Z,99.90
2018-05-26T23:25:12.528Z,99.90
2018-05-26T23:27:42.894Z,99.90
2018-05-26T23:30:16.364Z,99.90
2018-05-26T23:32:46.720Z,99.90
2018-05-26T23:35:18.129Z,99.90
2018-05-26T23:37:48.532Z,99.90
2018-05-26T23:40:19.661Z,99.90
2018-05-26T23:42:50.032Z,99.90
2018-05-26T23:45:20.417Z,99.90
2018-05-26T23:47:50.788Z,99.90
2018-05-26T23:50:21.162Z,99.90
2018-05-26T23:52:51.573Z,99.90
2018-05-26T23:55:40.285Z,99.90
2018-05-26T23:58:10.668Z,99.90
